sensor_id;sensor_type;location;lat;lon;timestamp;temperature;humidity
43997;DHT22;34318;45.818;15.964;2022-09-13T00:01:51;25.00;64.10
43997;DHT22;34318;45.818;15.964;2022-09-13T00:04:19;25.00;64.00
43997;DHT22;34318;45.818;15.964;2022-09-13T00:06:46;25.00;63.90
43997;DHT22;34318;45.818;15.964;2022-09-13T00:09:13;25.00;63.70
43997;DHT22;34318;45.818;15.964;2022-09-13T00:11:40;25.00;64.00
43997;DHT22;34318;45.818;15.964;2022-09-13T00:14:07;25.00;64.00
43997;DHT22;34318;45.818;15.964;2022-09-13T00:16:34;25.00;64.00
43997;DHT22;34318;45.818;15.964;2022-09-13T00:19:00;25.00;64.20
43997;DHT22;34318;45.818;15.964;2022-09-13T00:21:28;24.90;64.30
43997;DHT22;34318;45.818;15.964;2022-09-13T00:23:55;25.00;64.30
43997;DHT22;34318;45.818;15.964;2022-09-13T00:26:24;25.00;64.20
43997;DHT22;34318;45.818;15.964;2022-09-13T00:28:53;25.00;64.30
43997;DHT22;34318;45.818;15.964;2022-09-13T00:31:21;24.90;64.20
43997;DHT22;34318;45.818;15.964;2022-09-13T00:33:50;24.90;64.30
43997;DHT22;34318;45.818;15.964;2022-09-13T00:36:17;25.00;64.20
43997;DHT22;34318;45.818;15.964;2022-09-13T00:38:43;25.00;64.10
43997;DHT22;34318;45.818;15.964;2022-09-13T00:41:13;24.90;64.10
43997;DHT22;34318;45.818;15.964;2022-09-13T00:43:50;25.00;64.10
43997;DHT22;34318;45.818;15.964;2022-09-13T00:49:28;25.00;64.20
43997;DHT22;34318;45.818;15.964;2022-09-13T00:51:59;24.90;64.30
43997;DHT22;34318;45.818;15.964;2022-09-13T00:54:36;24.90;64.50
43997;DHT22;34318;45.818;15.964;2022-09-13T00:57:06;24.90;64.40
43997;DHT22;34318;45.818;15.964;2022-09-13T00:59:40;24.90;64.60
43997;DHT22;34318;45.818;15.964;2022-09-13T01:02:08;24.90;64.60
43997;DHT22;34318;45.818;15.964;2022-09-13T01:04:36;24.90;64.40
43997;DHT22;34318;45.818;15.964;2022-09-13T01:07:07;24.90;64.40
43997;DHT22;34318;45.818;15.964;2022-09-13T01:09:41;24.90;64.40
43997;DHT22;34318;45.818;15.964;2022-09-13T01:14:50;24.90;64.40
43997;DHT22;34318;45.818;15.964;2022-09-13T01:17:17;24.80;64.50
43997;DHT22;34318;45.818;15.964;2022-09-13T01:19:44;24.80;64.50
43997;DHT22;34318;45.818;15.964;2022-09-13T01:23:08;24.80;64.40
43997;DHT22;34318;45.818;15.964;2022-09-13T01:39:20;24.80;64.50
43997;DHT22;34318;45.818;15.964;2022-09-13T01:50:33;24.70;64.50
43997;DHT22;34318;45.818;15.964;2022-09-13T01:58:42;24.80;64.30
43997;DHT22;34318;45.818;15.964;2022-09-13T02:01:37;24.80;64.20
43997;DHT22;34318;45.818;15.964;2022-09-13T02:04:09;24.90;63.90
43997;DHT22;34318;45.818;15.964;2022-09-13T02:06:44;24.80;64.10
43997;DHT22;34318;45.818;15.964;2022-09-13T02:09:20;24.80;64.20
43997;DHT22;34318;45.818;15.964;2022-09-13T02:11:55;24.80;63.90
43997;DHT22;34318;45.818;15.964;2022-09-13T02:14:33;24.80;63.80
43997;DHT22;34318;45.818;15.964;2022-09-13T02:17:02;24.80;63.80
43997;DHT22;34318;45.818;15.964;2022-09-13T02:19:37;24.80;64.00
43997;DHT22;34318;45.818;15.964;2022-09-13T02:22:07;24.90;64.00
43997;DHT22;34318;45.818;15.964;2022-09-13T02:24:37;24.80;63.70
43997;DHT22;34318;45.818;15.964;2022-09-13T02:27:09;24.90;63.70
43997;DHT22;34318;45.818;15.964;2022-09-13T02:29:39;24.80;63.60
43997;DHT22;34318;45.818;15.964;2022-09-13T02:32:13;24.80;63.70
43997;DHT22;34318;45.818;15.964;2022-09-13T02:34:47;24.80;63.70
43997;DHT22;34318;45.818;15.964;2022-09-13T02:37:18;24.80;63.70
43997;DHT22;34318;45.818;15.964;2022-09-13T02:39:58;24.90;63.50
43997;DHT22;34318;45.818;15.964;2022-09-13T02:42:38;24.90;63.40
43997;DHT22;34318;45.818;15.964;2022-09-13T02:45:08;24.90;63.60
43997;DHT22;34318;45.818;15.964;2022-09-13T02:53:37;24.80;63.80
43997;DHT22;34318;45.818;15.964;2022-09-13T02:59:20;24.80;63.60
43997;DHT22;34318;45.818;15.964;2022-09-13T03:01:57;24.90;63.50
43997;DHT22;34318;45.818;15.964;2022-09-13T03:04:26;24.80;63.60
43997;DHT22;34318;45.818;15.964;2022-09-13T03:06:54;24.80;63.70
43997;DHT22;34318;45.818;15.964;2022-09-13T03:09:21;24.70;63.80
43997;DHT22;34318;45.818;15.964;2022-09-13T03:14:39;24.70;63.90
43997;DHT22;34318;45.818;15.964;2022-09-13T03:17:45;24.70;63.80
43997;DHT22;34318;45.818;15.964;2022-09-13T03:33:51;24.60;64.00
43997;DHT22;34318;45.818;15.964;2022-09-13T03:36:44;24.60;63.90
43997;DHT22;34318;45.818;15.964;2022-09-13T03:39:33;24.60;64.00
43997;DHT22;34318;45.818;15.964;2022-09-13T03:42:09;24.50;64.00
43997;DHT22;34318;45.818;15.964;2022-09-13T03:44:40;24.60;63.90
43997;DHT22;34318;45.818;15.964;2022-09-13T03:47:10;24.60;64.10
43997;DHT22;34318;45.818;15.964;2022-09-13T03:49:38;24.60;64.00
43997;DHT22;34318;45.818;15.964;2022-09-13T03:52:05;24.60;64.00
43997;DHT22;34318;45.818;15.964;2022-09-13T03:54:36;24.60;64.10
43997;DHT22;34318;45.818;15.964;2022-09-13T03:57:18;24.60;63.80
43997;DHT22;34318;45.818;15.964;2022-09-13T03:59:52;24.60;63.90
43997;DHT22;34318;45.818;15.964;2022-09-13T04:02:21;24.60;63.70
43997;DHT22;34318;45.818;15.964;2022-09-13T04:04:49;24.60;63.80
43997;DHT22;34318;45.818;15.964;2022-09-13T04:07:18;24.60;63.90
43997;DHT22;34318;45.818;15.964;2022-09-13T04:09:46;24.70;63.40
43997;DHT22;34318;45.818;15.964;2022-09-13T04:12:16;24.70;63.20
43997;DHT22;34318;45.818;15.964;2022-09-13T04:14:44;24.70;63.40
43997;DHT22;34318;45.818;15.964;2022-09-13T04:17:11;24.70;63.30
43997;DHT22;34318;45.818;15.964;2022-09-13T04:19:39;24.70;63.50
43997;DHT22;34318;45.818;15.964;2022-09-13T04:22:06;24.60;63.70
43997;DHT22;34318;45.818;15.964;2022-09-13T04:24:32;24.50;63.80
43997;DHT22;34318;45.818;15.964;2022-09-13T04:27:00;24.50;63.80
43997;DHT22;34318;45.818;15.964;2022-09-13T04:29:27;24.60;63.80
43997;DHT22;34318;45.818;15.964;2022-09-13T04:31:54;24.60;63.60
43997;DHT22;34318;45.818;15.964;2022-09-13T04:34:21;24.60;63.90
43997;DHT22;34318;45.818;15.964;2022-09-13T04:36:50;24.50;63.90
43997;DHT22;34318;45.818;15.964;2022-09-13T04:39:21;24.50;63.90
43997;DHT22;34318;45.818;15.964;2022-09-13T04:41:50;24.50;63.90
43997;DHT22;34318;45.818;15.964;2022-09-13T04:44:17;24.50;64.00
43997;DHT22;34318;45.818;15.964;2022-09-13T04:46:48;24.50;64.00
43997;DHT22;34318;45.818;15.964;2022-09-13T04:49:17;24.50;64.00
43997;DHT22;34318;45.818;15.964;2022-09-13T04:51:45;24.50;64.10
43997;DHT22;34318;45.818;15.964;2022-09-13T04:54:13;24.50;63.80
43997;DHT22;34318;45.818;15.964;2022-09-13T04:56:43;24.50;63.90
43997;DHT22;34318;45.818;15.964;2022-09-13T04:59:10;24.50;63.90
43997;DHT22;34318;45.818;15.964;2022-09-13T05:01:37;24.50;63.90
43997;DHT22;34318;45.818;15.964;2022-09-13T05:04:05;24.50;64.00
43997;DHT22;34318;45.818;15.964;2022-09-13T05:06:33;24.50;63.70
43997;DHT22;34318;45.818;15.964;2022-09-13T05:09:00;24.50;63.80
43997;DHT22;34318;45.818;15.964;2022-09-13T05:11:28;24.50;63.70
43997;DHT22;34318;45.818;15.964;2022-09-13T05:13:58;24.50;63.60
43997;DHT22;34318;45.818;15.964;2022-09-13T05:16:28;24.50;63.80
43997;DHT22;34318;45.818;15.964;2022-09-13T05:18:56;24.60;63.40
43997;DHT22;34318;45.818;15.964;2022-09-13T05:21:24;24.60;63.10
43997;DHT22;34318;45.818;15.964;2022-09-13T05:23:52;24.50;63.50
43997;DHT22;34318;45.818;15.964;2022-09-13T05:26:21;24.60;63.30
43997;DHT22;34318;45.818;15.964;2022-09-13T05:28:48;24.60;63.10
43997;DHT22;34318;45.818;15.964;2022-09-13T05:31:18;24.60;63.10
43997;DHT22;34318;45.818;15.964;2022-09-13T05:33:46;24.50;63.10
43997;DHT22;34318;45.818;15.964;2022-09-13T05:36:14;24.60;63.00
43997;DHT22;34318;45.818;15.964;2022-09-13T05:38:41;24.60;62.80
43997;DHT22;34318;45.818;15.964;2022-09-13T05:41:07;24.60;62.80
43997;DHT22;34318;45.818;15.964;2022-09-13T05:43:35;24.70;62.60
43997;DHT22;34318;45.818;15.964;2022-09-13T05:46:06;24.60;62.60
43997;DHT22;34318;45.818;15.964;2022-09-13T05:48:34;24.60;62.70
43997;DHT22;34318;45.818;15.964;2022-09-13T05:51:07;24.60;62.80
43997;DHT22;34318;45.818;15.964;2022-09-13T05:53:34;24.50;62.90
43997;DHT22;34318;45.818;15.964;2022-09-13T05:56:01;24.50;63.10
43997;DHT22;34318;45.818;15.964;2022-09-13T05:58:28;24.40;62.90
43997;DHT22;34318;45.818;15.964;2022-09-13T06:00:56;24.40;62.10
43997;DHT22;34318;45.818;15.964;2022-09-13T06:03:23;24.30;61.50
43997;DHT22;34318;45.818;15.964;2022-09-13T06:05:55;24.30;61.30
43997;DHT22;34318;45.818;15.964;2022-09-13T06:08:23;24.30;60.40
43997;DHT22;34318;45.818;15.964;2022-09-13T06:10:58;24.30;60.50
43997;DHT22;34318;45.818;15.964;2022-09-13T06:13:26;24.20;60.40
43997;DHT22;34318;45.818;15.964;2022-09-13T06:15:53;24.30;60.10
43997;DHT22;34318;45.818;15.964;2022-09-13T06:18:21;24.50;59.70
43997;DHT22;34318;45.818;15.964;2022-09-13T06:20:48;24.60;59.20
43997;DHT22;34318;45.818;15.964;2022-09-13T06:23:15;24.60;59.10
43997;DHT22;34318;45.818;15.964;2022-09-13T06:25:42;24.70;59.10
43997;DHT22;34318;45.818;15.964;2022-09-13T06:28:10;24.70;59.10
43997;DHT22;34318;45.818;15.964;2022-09-13T06:30:36;24.80;59.00
43997;DHT22;34318;45.818;15.964;2022-09-13T06:33:03;24.80;59.10
43997;DHT22;34318;45.818;15.964;2022-09-13T06:35:30;24.80;59.10
43997;DHT22;34318;45.818;15.964;2022-09-13T06:37:57;24.90;59.40
43997;DHT22;34318;45.818;15.964;2022-09-13T06:40:24;24.90;59.40
43997;DHT22;34318;45.818;15.964;2022-09-13T06:42:51;24.90;59.40
43997;DHT22;34318;45.818;15.964;2022-09-13T06:45:18;24.90;59.30
43997;DHT22;34318;45.818;15.964;2022-09-13T06:47:45;25.00;59.40
43997;DHT22;34318;45.818;15.964;2022-09-13T06:50:11;25.00;59.50
43997;DHT22;34318;45.818;15.964;2022-09-13T06:52:39;25.00;59.60
43997;DHT22;34318;45.818;15.964;2022-09-13T06:55:06;25.00;59.50
43997;DHT22;34318;45.818;15.964;2022-09-13T06:57:38;25.00;59.60
43997;DHT22;34318;45.818;15.964;2022-09-13T07:00:05;25.00;59.70
43997;DHT22;34318;45.818;15.964;2022-09-13T07:02:32;25.00;59.70
43997;DHT22;34318;45.818;15.964;2022-09-13T07:05:00;25.00;59.70
43997;DHT22;34318;45.818;15.964;2022-09-13T07:07:26;25.10;59.50
43997;DHT22;34318;45.818;15.964;2022-09-13T07:09:53;25.10;59.40
43997;DHT22;34318;45.818;15.964;2022-09-13T07:12:20;25.20;59.20
43997;DHT22;34318;45.818;15.964;2022-09-13T07:14:47;25.20;59.40
43997;DHT22;34318;45.818;15.964;2022-09-13T07:17:13;25.20;59.40
43997;DHT22;34318;45.818;15.964;2022-09-13T07:19:40;25.20;59.30
43997;DHT22;34318;45.818;15.964;2022-09-13T07:22:07;25.20;59.50
43997;DHT22;34318;45.818;15.964;2022-09-13T07:24:35;25.30;59.60
43997;DHT22;34318;45.818;15.964;2022-09-13T07:27:02;25.30;59.30
43997;DHT22;34318;45.818;15.964;2022-09-13T07:29:29;25.40;59.30
43997;DHT22;34318;45.818;15.964;2022-09-13T07:31:56;25.40;59.30
43997;DHT22;34318;45.818;15.964;2022-09-13T07:34:25;25.40;59.30
43997;DHT22;34318;45.818;15.964;2022-09-13T07:36:52;25.40;59.30
43997;DHT22;34318;45.818;15.964;2022-09-13T07:39:19;25.40;59.00
43997;DHT22;34318;45.818;15.964;2022-09-13T07:41:49;25.50;58.80
43997;DHT22;34318;45.818;15.964;2022-09-13T07:44:16;25.50;58.80
43997;DHT22;34318;45.818;15.964;2022-09-13T07:46:45;25.50;58.90
43997;DHT22;34318;45.818;15.964;2022-09-13T07:49:13;25.50;58.70
43997;DHT22;34318;45.818;15.964;2022-09-13T07:51:41;25.50;58.70
43997;DHT22;34318;45.818;15.964;2022-09-13T07:54:14;25.50;58.80
43997;DHT22;34318;45.818;15.964;2022-09-13T07:56:41;25.60;58.70
43997;DHT22;34318;45.818;15.964;2022-09-13T07:59:15;25.60;58.90
43997;DHT22;34318;45.818;15.964;2022-09-13T08:01:47;25.60;58.90
43997;DHT22;34318;45.818;15.964;2022-09-13T08:04:17;25.60;58.90
43997;DHT22;34318;45.818;15.964;2022-09-13T08:06:44;25.60;58.80
43997;DHT22;34318;45.818;15.964;2022-09-13T08:09:14;25.50;59.00
43997;DHT22;34318;45.818;15.964;2022-09-13T08:11:48;25.60;58.90
43997;DHT22;34318;45.818;15.964;2022-09-13T08:14:19;25.60;58.80
43997;DHT22;34318;45.818;15.964;2022-09-13T08:16:46;25.70;58.80
43997;DHT22;34318;45.818;15.964;2022-09-13T08:19:15;25.80;59.20
43997;DHT22;34318;45.818;15.964;2022-09-13T08:21:43;25.80;58.70
43997;DHT22;34318;45.818;15.964;2022-09-13T08:24:18;25.80;58.50
43997;DHT22;34318;45.818;15.964;2022-09-13T08:26:47;25.80;58.50
43997;DHT22;34318;45.818;15.964;2022-09-13T08:29:15;25.80;58.50
43997;DHT22;34318;45.818;15.964;2022-09-13T08:31:42;25.80;58.10
43997;DHT22;34318;45.818;15.964;2022-09-13T08:34:11;25.80;58.20
43997;DHT22;34318;45.818;15.964;2022-09-13T08:36:38;25.70;58.40
43997;DHT22;34318;45.818;15.964;2022-09-13T08:39:07;25.80;58.50
43997;DHT22;34318;45.818;15.964;2022-09-13T08:44:29;25.90;58.50
43997;DHT22;34318;45.818;15.964;2022-09-13T08:50:37;26.00;58.40
43997;DHT22;34318;45.818;15.964;2022-09-13T08:53:17;26.00;58.10
43997;DHT22;34318;45.818;15.964;2022-09-13T09:03:52;26.10;57.90
43997;DHT22;34318;45.818;15.964;2022-09-13T09:06:31;26.20;57.60
43997;DHT22;34318;45.818;15.964;2022-09-13T09:09:02;26.20;57.70
43997;DHT22;34318;45.818;15.964;2022-09-13T09:12:00;26.20;57.50
43997;DHT22;34318;45.818;15.964;2022-09-13T09:14:37;26.20;57.70
43997;DHT22;34318;45.818;15.964;2022-09-13T09:17:16;26.20;57.80
43997;DHT22;34318;45.818;15.964;2022-09-13T09:20:17;26.20;58.10
43997;DHT22;34318;45.818;15.964;2022-09-13T09:22:41;26.20;58.10
43997;DHT22;34318;45.818;15.964;2022-09-13T09:25:23;26.20;57.70
43997;DHT22;34318;45.818;15.964;2022-09-13T09:27:52;26.30;58.20
43997;DHT22;34318;45.818;15.964;2022-09-13T09:30:20;26.20;58.60
43997;DHT22;34318;45.818;15.964;2022-09-13T09:33:17;26.20;58.60
43997;DHT22;34318;45.818;15.964;2022-09-13T09:38:54;26.10;58.50
43997;DHT22;34318;45.818;15.964;2022-09-13T09:41:29;26.00;58.20
43997;DHT22;34318;45.818;15.964;2022-09-13T09:46:32;26.00;58.30
43997;DHT22;34318;45.818;15.964;2022-09-13T09:52:06;26.00;58.00
43997;DHT22;34318;45.818;15.964;2022-09-13T09:54:36;26.00;57.50
43997;DHT22;34318;45.818;15.964;2022-09-13T09:57:05;26.10;57.60
43997;DHT22;34318;45.818;15.964;2022-09-13T09:59:35;26.00;57.70
43997;DHT22;34318;45.818;15.964;2022-09-13T10:02:15;26.00;57.50
43997;DHT22;34318;45.818;15.964;2022-09-13T10:04:53;26.00;57.60
43997;DHT22;34318;45.818;15.964;2022-09-13T10:09:58;26.10;57.70
43997;DHT22;34318;45.818;15.964;2022-09-13T10:12:28;26.10;57.60
43997;DHT22;34318;45.818;15.964;2022-09-13T10:15:12;26.10;57.60
43997;DHT22;34318;45.818;15.964;2022-09-13T10:17:41;26.20;57.20
43997;DHT22;34318;45.818;15.964;2022-09-13T10:22:41;26.10;57.40
43997;DHT22;34318;45.818;15.964;2022-09-13T10:25:24;26.00;57.00
43997;DHT22;34318;45.818;15.964;2022-09-13T10:27:55;26.00;57.10
43997;DHT22;34318;45.818;15.964;2022-09-13T10:30:45;25.90;56.90
43997;DHT22;34318;45.818;15.964;2022-09-13T10:33:51;25.90;56.80
43997;DHT22;34318;45.818;15.964;2022-09-13T10:36:23;26.00;56.90
43997;DHT22;34318;45.818;15.964;2022-09-13T10:39:14;26.00;57.10
43997;DHT22;34318;45.818;15.964;2022-09-13T10:44:42;26.00;57.00
43997;DHT22;34318;45.818;15.964;2022-09-13T10:47:22;26.00;56.80
43997;DHT22;34318;45.818;15.964;2022-09-13T10:49:55;25.90;56.90
43997;DHT22;34318;45.818;15.964;2022-09-13T10:52:28;25.90;57.20
43997;DHT22;34318;45.818;15.964;2022-09-13T10:57:47;25.90;57.00
43997;DHT22;34318;45.818;15.964;2022-09-13T11:00:33;25.90;57.10
43997;DHT22;34318;45.818;15.964;2022-09-13T11:03:29;25.90;57.10
43997;DHT22;34318;45.818;15.964;2022-09-13T11:09:20;25.90;57.00
43997;DHT22;34318;45.818;15.964;2022-09-13T11:30:55;25.70;57.10
43997;DHT22;34318;45.818;15.964;2022-09-13T11:36:37;25.70;57.40
43997;DHT22;34318;45.818;15.964;2022-09-13T11:47:54;25.70;57.50
43997;DHT22;34318;45.818;15.964;2022-09-13T11:56:07;25.80;57.10
43997;DHT22;34318;45.818;15.964;2022-09-13T12:01:38;25.70;57.20
43997;DHT22;34318;45.818;15.964;2022-09-13T12:04:18;25.80;57.10
43997;DHT22;34318;45.818;15.964;2022-09-13T12:07:00;25.70;57.10
43997;DHT22;34318;45.818;15.964;2022-09-13T12:10:14;25.70;57.10
43997;DHT22;34318;45.818;15.964;2022-09-13T12:12:22;25.70;57.10
43997;DHT22;34318;45.818;15.964;2022-09-13T12:15:01;25.70;57.20
43997;DHT22;34318;45.818;15.964;2022-09-13T12:19:57;25.80;57.10
43997;DHT22;34318;45.818;15.964;2022-09-13T12:22:29;25.70;57.10
43997;DHT22;34318;45.818;15.964;2022-09-13T12:25:02;25.70;57.10
43997;DHT22;34318;45.818;15.964;2022-09-13T12:27:39;25.70;57.10
43997;DHT22;34318;45.818;15.964;2022-09-13T12:32:43;25.80;56.90
43997;DHT22;34318;45.818;15.964;2022-09-13T12:35:27;25.80;56.90
43997;DHT22;34318;45.818;15.964;2022-09-13T12:38:08;25.80;56.90
43997;DHT22;34318;45.818;15.964;2022-09-13T12:40:58;25.80;57.10
43997;DHT22;34318;45.818;15.964;2022-09-13T12:54:33;25.70;57.00
43997;DHT22;34318;45.818;15.964;2022-09-13T13:02:44;25.80;57.30
43997;DHT22;34318;45.818;15.964;2022-09-13T13:08:02;25.80;57.40
43997;DHT22;34318;45.818;15.964;2022-09-13T13:10:35;25.80;57.30
43997;DHT22;34318;45.818;15.964;2022-09-13T13:13:22;25.80;57.30
43997;DHT22;34318;45.818;15.964;2022-09-13T13:24:36;25.80;57.40
43997;DHT22;34318;45.818;15.964;2022-09-13T13:27:33;25.80;57.40
43997;DHT22;34318;45.818;15.964;2022-09-13T13:33:22;25.80;57.50
43997;DHT22;34318;45.818;15.964;2022-09-13T13:35:49;25.70;57.40
43997;DHT22;34318;45.818;15.964;2022-09-13T13:38:36;25.80;57.50
43997;DHT22;34318;45.818;15.964;2022-09-13T14:01:20;25.80;57.80
43997;DHT22;34318;45.818;15.964;2022-09-13T14:03:58;25.80;58.00
43997;DHT22;34318;45.818;15.964;2022-09-13T14:06:48;25.80;58.60
43997;DHT22;34318;45.818;15.964;2022-09-13T14:09:39;25.80;58.80
43997;DHT22;34318;45.818;15.964;2022-09-13T14:12:19;25.80;58.80
43997;DHT22;34318;45.818;15.964;2022-09-13T14:17:59;25.80;59.20
43997;DHT22;34318;45.818;15.964;2022-09-13T14:20:28;25.80;59.10
43997;DHT22;34318;45.818;15.964;2022-09-13T14:23:19;25.80;59.00
43997;DHT22;34318;45.818;15.964;2022-09-13T14:25:53;25.80;59.00
43997;DHT22;34318;45.818;15.964;2022-09-13T14:28:22;25.80;59.00
43997;DHT22;34318;45.818;15.964;2022-09-13T14:30:56;25.70;58.90
43997;DHT22;34318;45.818;15.964;2022-09-13T14:33:29;25.70;59.00
43997;DHT22;34318;45.818;15.964;2022-09-13T14:36:06;25.70;58.90
43997;DHT22;34318;45.818;15.964;2022-09-13T14:38:35;25.70;59.00
43997;DHT22;34318;45.818;15.964;2022-09-13T14:41:12;25.80;59.00
43997;DHT22;34318;45.818;15.964;2022-09-13T14:43:40;25.70;59.10
43997;DHT22;34318;45.818;15.964;2022-09-13T14:46:50;25.70;59.00
43997;DHT22;34318;45.818;15.964;2022-09-13T14:49:18;25.70;59.00
43997;DHT22;34318;45.818;15.964;2022-09-13T14:51:57;25.70;59.10
43997;DHT22;34318;45.818;15.964;2022-09-13T14:54:38;25.80;59.40
43997;DHT22;34318;45.818;15.964;2022-09-13T14:57:30;25.80;59.40
43997;DHT22;34318;45.818;15.964;2022-09-13T15:00:05;25.80;59.40
43997;DHT22;34318;45.818;15.964;2022-09-13T15:02:37;25.80;59.50
43997;DHT22;34318;45.818;15.964;2022-09-13T15:05:12;25.70;59.50
43997;DHT22;34318;45.818;15.964;2022-09-13T15:07:40;25.70;59.70
43997;DHT22;34318;45.818;15.964;2022-09-13T15:12:55;25.80;59.70
43997;DHT22;34318;45.818;15.964;2022-09-13T15:15:40;25.80;60.00
43997;DHT22;34318;45.818;15.964;2022-09-13T15:26:12;25.80;60.00
43997;DHT22;34318;45.818;15.964;2022-09-13T15:31:10;25.80;60.30
43997;DHT22;34318;45.818;15.964;2022-09-13T15:33:37;25.80;60.60
43997;DHT22;34318;45.818;15.964;2022-09-13T15:38:59;25.70;60.40
43997;DHT22;34318;45.818;15.964;2022-09-13T15:41:37;25.70;60.50
43997;DHT22;34318;45.818;15.964;2022-09-13T15:44:07;25.80;60.70
43997;DHT22;34318;45.818;15.964;2022-09-13T15:46:44;25.80;60.80
43997;DHT22;34318;45.818;15.964;2022-09-13T15:49:15;25.70;61.20
43997;DHT22;34318;45.818;15.964;2022-09-13T15:51:44;25.70;61.20
43997;DHT22;34318;45.818;15.964;2022-09-13T15:54:13;25.70;61.30
43997;DHT22;34318;45.818;15.964;2022-09-13T15:56:47;25.80;61.20
43997;DHT22;34318;45.818;15.964;2022-09-13T15:59:19;25.70;61.10
43997;DHT22;34318;45.818;15.964;2022-09-13T16:01:48;25.70;61.10
43997;DHT22;34318;45.818;15.964;2022-09-13T16:04:19;25.70;61.20
43997;DHT22;34318;45.818;15.964;2022-09-13T16:06:46;25.70;61.50
43997;DHT22;34318;45.818;15.964;2022-09-13T16:09:22;25.70;61.20
43997;DHT22;34318;45.818;15.964;2022-09-13T16:11:51;25.70;61.20
43997;DHT22;34318;45.818;15.964;2022-09-13T16:14:19;25.70;61.50
43997;DHT22;34318;45.818;15.964;2022-09-13T16:16:46;25.80;61.60
43997;DHT22;34318;45.818;15.964;2022-09-13T16:19:19;25.70;61.50
43997;DHT22;34318;45.818;15.964;2022-09-13T16:21:47;25.70;61.50
43997;DHT22;34318;45.818;15.964;2022-09-13T16:24:14;25.70;61.30
43997;DHT22;34318;45.818;15.964;2022-09-13T16:26:41;25.70;61.30
43997;DHT22;34318;45.818;15.964;2022-09-13T16:29:10;25.70;61.40
43997;DHT22;34318;45.818;15.964;2022-09-13T16:31:38;25.60;61.40
43997;DHT22;34318;45.818;15.964;2022-09-13T16:34:05;25.70;61.60
43997;DHT22;34318;45.818;15.964;2022-09-13T16:36:33;25.70;61.60
43997;DHT22;34318;45.818;15.964;2022-09-13T16:39:00;25.70;61.60
43997;DHT22;34318;45.818;15.964;2022-09-13T16:41:27;25.70;61.60
43997;DHT22;34318;45.818;15.964;2022-09-13T16:43:54;25.60;61.70
43997;DHT22;34318;45.818;15.964;2022-09-13T16:46:22;25.60;61.80
43997;DHT22;34318;45.818;15.964;2022-09-13T16:48:53;25.60;61.90
43997;DHT22;34318;45.818;15.964;2022-09-13T16:51:22;25.60;62.00
43997;DHT22;34318;45.818;15.964;2022-09-13T16:53:50;25.60;62.00
43997;DHT22;34318;45.818;15.964;2022-09-13T16:56:20;25.60;62.20
43997;DHT22;34318;45.818;15.964;2022-09-13T16:58:48;25.60;62.10
43997;DHT22;34318;45.818;15.964;2022-09-13T17:01:18;25.70;62.20
43997;DHT22;34318;45.818;15.964;2022-09-13T17:03:46;25.60;62.40
43997;DHT22;34318;45.818;15.964;2022-09-13T17:06:20;25.60;62.40
43997;DHT22;34318;45.818;15.964;2022-09-13T17:09:06;25.60;62.30
43997;DHT22;34318;45.818;15.964;2022-09-13T17:11:36;25.60;62.20
43997;DHT22;34318;45.818;15.964;2022-09-13T17:14:06;25.60;62.30
43997;DHT22;34318;45.818;15.964;2022-09-13T17:16:38;25.60;62.40
43997;DHT22;34318;45.818;15.964;2022-09-13T17:19:10;25.60;62.50
43997;DHT22;34318;45.818;15.964;2022-09-13T17:21:37;25.60;62.40
43997;DHT22;34318;45.818;15.964;2022-09-13T17:24:05;25.60;62.50
43997;DHT22;34318;45.818;15.964;2022-09-13T17:26:39;25.60;62.70
43997;DHT22;34318;45.818;15.964;2022-09-13T17:29:07;25.60;62.80
43997;DHT22;34318;45.818;15.964;2022-09-13T17:31:33;25.60;62.60
43997;DHT22;34318;45.818;15.964;2022-09-13T17:34:01;25.60;62.60
43997;DHT22;34318;45.818;15.964;2022-09-13T17:36:28;25.60;62.80
43997;DHT22;34318;45.818;15.964;2022-09-13T17:38:55;25.50;63.30
43997;DHT22;34318;45.818;15.964;2022-09-13T17:41:24;25.50;63.50
43997;DHT22;34318;45.818;15.964;2022-09-13T17:43:52;25.50;63.80
43997;DHT22;34318;45.818;15.964;2022-09-13T17:46:21;25.50;63.80
43997;DHT22;34318;45.818;15.964;2022-09-13T17:48:53;25.50;63.80
43997;DHT22;34318;45.818;15.964;2022-09-13T17:51:22;25.50;64.00
43997;DHT22;34318;45.818;15.964;2022-09-13T17:53:51;25.50;63.90
43997;DHT22;34318;45.818;15.964;2022-09-13T17:56:21;25.50;64.00
43997;DHT22;34318;45.818;15.964;2022-09-13T17:58:49;25.50;63.90
43997;DHT22;34318;45.818;15.964;2022-09-13T18:01:16;25.50;63.60
43997;DHT22;34318;45.818;15.964;2022-09-13T18:03:43;25.60;63.60
43997;DHT22;34318;45.818;15.964;2022-09-13T18:06:12;25.60;63.50
43997;DHT22;34318;45.818;15.964;2022-09-13T18:08:40;25.60;63.50
43997;DHT22;34318;45.818;15.964;2022-09-13T18:11:12;25.60;63.70
43997;DHT22;34318;45.818;15.964;2022-09-13T18:13:42;25.60;63.60
43997;DHT22;34318;45.818;15.964;2022-09-13T18:16:13;25.60;63.70
43997;DHT22;34318;45.818;15.964;2022-09-13T18:18:48;25.60;63.90
43997;DHT22;34318;45.818;15.964;2022-09-13T18:21:16;25.60;63.90
43997;DHT22;34318;45.818;15.964;2022-09-13T18:23:50;25.50;63.90
43997;DHT22;34318;45.818;15.964;2022-09-13T18:26:22;25.60;64.10
43997;DHT22;34318;45.818;15.964;2022-09-13T18:28:54;25.60;64.00
43997;DHT22;34318;45.818;15.964;2022-09-13T18:31:23;25.60;64.20
43997;DHT22;34318;45.818;15.964;2022-09-13T18:33:55;25.60;64.20
43997;DHT22;34318;45.818;15.964;2022-09-13T18:36:24;25.50;64.00
43997;DHT22;34318;45.818;15.964;2022-09-13T18:38:52;25.50;63.90
43997;DHT22;34318;45.818;15.964;2022-09-13T18:41:22;25.50;63.90
43997;DHT22;34318;45.818;15.964;2022-09-13T18:43:51;25.50;63.90
43997;DHT22;34318;45.818;15.964;2022-09-13T18:46:27;25.50;63.80
43997;DHT22;34318;45.818;15.964;2022-09-13T18:48:55;25.50;63.70
43997;DHT22;34318;45.818;15.964;2022-09-13T18:51:26;25.50;63.70
43997;DHT22;34318;45.818;15.964;2022-09-13T18:53:54;25.50;64.50
43997;DHT22;34318;45.818;15.964;2022-09-13T18:56:22;25.50;63.70
43997;DHT22;34318;45.818;15.964;2022-09-13T18:58:49;25.50;63.80
43997;DHT22;34318;45.818;15.964;2022-09-13T19:01:23;25.50;63.70
43997;DHT22;34318;45.818;15.964;2022-09-13T19:04:00;25.50;64.40
43997;DHT22;34318;45.818;15.964;2022-09-13T19:06:39;25.50;63.70
43997;DHT22;34318;45.818;15.964;2022-09-13T19:09:08;25.50;63.80
43997;DHT22;34318;45.818;15.964;2022-09-13T19:11:38;25.50;63.70
43997;DHT22;34318;45.818;15.964;2022-09-13T19:14:15;25.50;63.80
43997;DHT22;34318;45.818;15.964;2022-09-13T19:16:42;25.50;63.80